sensor_id;sensor_type;location;lat;lon;timestamp;pressure;altitude;pressure_sealevel;temperature;humidity
76594;BME280;65482;50.240;14.302;2023-01-24T00:01:00;101418.25;;;2.58;69.52
76594;BME280;65482;50.240;14.302;2023-01-24T00:06:47;101412.34;;;2.55;70.14
76594;BME280;65482;50.240;14.302;2023-01-24T00:09:19;101409.84;;;2.52;69.73
76594;BME280;65482;50.240;14.302;2023-01-24T00:12:06;101417.81;;;2.49;70.15
76594;BME280;65482;50.240;14.302;2023-01-24T00:14:49;101411.56;;;2.53;70.13
76594;BME280;65482;50.240;14.302;2023-01-24T00:17:27;101410.63;;;2.54;70.24
76594;BME280;65482;50.240;14.302;2023-01-24T00:20:16;101394.34;;;2.49;69.63
76594;BME280;65482;50.240;14.302;2023-01-24T00:22:55;101408.06;;;2.52;69.95
76594;BME280;65482;50.240;14.302;2023-01-24T00:25:30;101403.59;;;2.56;70.04
76594;BME280;65482;50.240;14.302;2023-01-24T00:28:05;101402.63;;;2.58;69.33
76594;BME280;65482;50.240;14.302;2023-01-24T00:30:52;101407.03;;;2.56;69.93
76594;BME280;65482;50.240;14.302;2023-01-24T00:33:27;101400.25;;;2.52;69.71
76594;BME280;65482;50.240;14.302;2023-01-24T00:36:15;101406.16;;;2.57;69.81
76594;BME280;65482;50.240;14.302;2023-01-24T00:38:50;101407.75;;;2.60;69.52
76594;BME280;65482;50.240;14.302;2023-01-24T00:44:29;101415.97;;;2.51;70.42
76594;BME280;65482;50.240;14.302;2023-01-24T00:47:10;101416.56;;;2.57;70.41
76594;BME280;65482;50.240;14.302;2023-01-24T00:50:07;101405.56;;;2.51;69.81
76594;BME280;65482;50.240;14.302;2023-01-24T00:55:32;101421.88;;;2.54;69.64
76594;BME280;65482;50.240;14.302;2023-01-24T00:58:39;101418.59;;;2.51;70.15
76594;BME280;65482;50.240;14.302;2023-01-24T01:01:20;101420.06;;;2.56;69.99
76594;BME280;65482;50.240;14.302;2023-01-24T01:04:03;101421.84;;;2.56;70.21
76594;BME280;65482;50.240;14.302;2023-01-24T01:06:31;101432.97;;;2.59;69.85
76594;BME280;65482;50.240;14.302;2023-01-24T01:09:12;101425.28;;;2.56;70.21
76594;BME280;65482;50.240;14.302;2023-01-24T01:11:55;101431.28;;;2.58;70.25
76594;BME280;65482;50.240;14.302;2023-01-24T01:14:30;101438.25;;;2.58;70.14
76594;BME280;65482;50.240;14.302;2023-01-24T01:17:39;101444.19;;;2.62;70.42
76594;BME280;65482;50.240;14.302;2023-01-24T01:20:23;101438.91;;;2.63;69.96
76594;BME280;65482;50.240;14.302;2023-01-24T01:23:02;101440.53;;;2.66;69.90
76594;BME280;65482;50.240;14.302;2023-01-24T01:25:43;101442.44;;;2.62;69.84
76594;BME280;65482;50.240;14.302;2023-01-24T01:28:23;101444.06;;;2.65;70.04
76594;BME280;65482;50.240;14.302;2023-01-24T01:31:31;101442.25;;;2.67;69.81
76594;BME280;65482;50.240;14.302;2023-01-24T01:34:14;101449.03;;;2.71;69.61
76594;BME280;65482;50.240;14.302;2023-01-24T01:37:10;101451.69;;;2.69;70.05
76594;BME280;65482;50.240;14.302;2023-01-24T01:39:43;101444.78;;;2.68;69.60
76594;BME280;65482;50.240;14.302;2023-01-24T01:48:29;101442.91;;;2.72;69.48
76594;BME280;65482;50.240;14.302;2023-01-24T01:54:19;101440.44;;;2.69;69.74
76594;BME280;65482;50.240;14.302;2023-01-24T02:00:15;101448.16;;;2.70;69.96
76594;BME280;65482;50.240;14.302;2023-01-24T02:02:48;101446.34;;;2.72;69.67
76594;BME280;65482;50.240;14.302;2023-01-24T02:05:26;101444.53;;;2.74;69.70
76594;BME280;65482;50.240;14.302;2023-01-24T02:08:30;101452.28;;;2.76;69.79
76594;BME280;65482;50.240;14.302;2023-01-24T02:11:13;101439.19;;;2.77;69.51
76594;BME280;65482;50.240;14.302;2023-01-24T02:14:27;101444.31;;;2.81;69.66
76594;BME280;65482;50.240;14.302;2023-01-24T02:17:22;101442.59;;;2.79;69.30
76594;BME280;65482;50.240;14.302;2023-01-24T02:23:35;101436.47;;;2.81;69.31
76594;BME280;65482;50.240;14.302;2023-01-24T02:26:31;101443.38;;;2.82;69.50
76594;BME280;65482;50.240;14.302;2023-01-24T02:29:12;101433.78;;;2.82;69.36
76594;BME280;65482;50.240;14.302;2023-01-24T02:32:12;101437.25;;;2.83;69.29
76594;BME280;65482;50.240;14.302;2023-01-24T02:34:52;101434.72;;;2.81;68.96
76594;BME280;65482;50.240;14.302;2023-01-24T02:37:37;101445.19;;;2.79;69.37
76594;BME280;65482;50.240;14.302;2023-01-24T02:40:16;101443.31;;;2.83;68.76
76594;BME280;65482;50.240;14.302;2023-01-24T02:42:57;101433.88;;;2.81;69.21
76594;BME280;65482;50.240;14.302;2023-01-24T02:45:35;101440.03;;;2.78;68.94
76594;BME280;65482;50.240;14.302;2023-01-24T02:48:27;101434.97;;;2.75;68.91
76594;BME280;65482;50.240;14.302;2023-01-24T02:51:02;101426.47;;;2.70;69.28
76594;BME280;65482;50.240;14.302;2023-01-24T02:54:04;101424.81;;;2.69;69.57
76594;BME280;65482;50.240;14.302;2023-01-24T02:57:00;101424.84;;;2.67;69.65
76594;BME280;65482;50.240;14.302;2023-01-24T02:59:52;101421.31;;;2.68;69.70
76594;BME280;65482;50.240;14.302;2023-01-24T03:02:33;101416.84;;;2.72;69.58
76594;BME280;65482;50.240;14.302;2023-01-24T03:05:04;101416.84;;;2.72;69.91
76594;BME280;65482;50.240;14.302;2023-01-24T03:07:40;101418.59;;;2.71;69.32
76594;BME280;65482;50.240;14.302;2023-01-24T03:10:28;101424.41;;;2.78;69.45
76594;BME280;65482;50.240;14.302;2023-01-24T03:13:21;101419.34;;;2.75;69.35
76594;BME280;65482;50.240;14.302;2023-01-24T03:16:31;101427.78;;;2.80;69.02
76594;BME280;65482;50.240;14.302;2023-01-24T03:19:32;101422.88;;;2.72;69.63
76594;BME280;65482;50.240;14.302;2023-01-24T03:22:31;101422.56;;;2.59;69.30
76594;BME280;65482;50.240;14.302;2023-01-24T03:25:22;101427.28;;;2.50;70.00
76594;BME280;65482;50.240;14.302;2023-01-24T03:28:16;101425.28;;;2.56;69.63
76594;BME280;65482;50.240;14.302;2023-01-24T03:31:11;101428.22;;;2.49;70.19
76594;BME280;65482;50.240;14.302;2023-01-24T03:34:23;101427.19;;;2.53;70.07
76594;BME280;65482;50.240;14.302;2023-01-24T03:37:06;101437.66;;;2.51;69.84
76594;BME280;65482;50.240;14.302;2023-01-24T03:39:55;101429.66;;;2.56;70.36
76594;BME280;65482;50.240;14.302;2023-01-24T03:42:37;101430.25;;;2.63;70.16
76594;BME280;65482;50.240;14.302;2023-01-24T03:45:26;101430.19;;;2.64;70.52
76594;BME280;65482;50.240;14.302;2023-01-24T03:47:55;101424.72;;;2.70;70.24
76594;BME280;65482;50.240;14.302;2023-01-24T03:50:29;101424.72;;;2.70;69.81
76594;BME280;65482;50.240;14.302;2023-01-24T03:53:14;101417.78;;;2.71;69.80
76594;BME280;65482;50.240;14.302;2023-01-24T03:55:40;101419.38;;;2.73;69.76
76594;BME280;65482;50.240;14.302;2023-01-24T03:58:07;101422.00;;;2.73;69.95
76594;BME280;65482;50.240;14.302;2023-01-24T04:00:33;101425.63;;;2.69;69.48
76594;BME280;65482;50.240;14.302;2023-01-24T04:02:59;101430.78;;;2.71;69.74
76594;BME280;65482;50.240;14.302;2023-01-24T04:05:26;101432.47;;;2.72;69.73
76594;BME280;65482;50.240;14.302;2023-01-24T04:07:53;101434.88;;;2.76;69.56
76594;BME280;65482;50.240;14.302;2023-01-24T04:10:20;101433.41;;;2.71;69.56
76594;BME280;65482;50.240;14.302;2023-01-24T04:12:46;101435.22;;;2.69;69.72
76594;BME280;65482;50.240;14.302;2023-01-24T04:15:17;101436.19;;;2.66;69.31
76594;BME280;65482;50.240;14.302;2023-01-24T04:17:44;101430.13;;;2.66;69.28
76594;BME280;65482;50.240;14.302;2023-01-24T04:20:10;101436.31;;;2.63;69.75
76594;BME280;65482;50.240;14.302;2023-01-24T04:22:37;101424.31;;;2.59;69.62
76594;BME280;65482;50.240;14.302;2023-01-24T04:25:03;101434.81;;;2.57;69.54
76594;BME280;65482;50.240;14.302;2023-01-24T04:27:40;101428.13;;;2.50;69.29
76594;BME280;65482;50.240;14.302;2023-01-24T04:30:21;101433.72;;;2.41;69.97
76594;BME280;65482;50.240;14.302;2023-01-24T04:33:11;101428.81;;;2.33;70.24
76594;BME280;65482;50.240;14.302;2023-01-24T04:35:58;101437.28;;;2.38;70.55
76594;BME280;65482;50.240;14.302;2023-01-24T04:38:29;101431.44;;;2.33;70.39
76594;BME280;65482;50.240;14.302;2023-01-24T04:41:08;101438.41;;;2.33;70.44
76594;BME280;65482;50.240;14.302;2023-01-24T04:43:42;101432.22;;;2.35;70.22
76594;BME280;65482;50.240;14.302;2023-01-24T04:46:10;101435.47;;;2.41;70.52
76594;BME280;65482;50.240;14.302;2023-01-24T04:48:55;101441.47;;;2.43;70.38
76594;BME280;65482;50.240;14.302;2023-01-24T04:51:36;101440.50;;;2.45;70.27
76594;BME280;65482;50.240;14.302;2023-01-24T04:54:05;101444.75;;;2.48;70.34
76594;BME280;65482;50.240;14.302;2023-01-24T04:57:05;101447.41;;;2.46;70.55
76594;BME280;65482;50.240;14.302;2023-01-24T04:59:33;101441.09;;;2.52;70.28
76594;BME280;65482;50.240;14.302;2023-01-24T05:04:54;101439.81;;;2.62;70.11
76594;BME280;65482;50.240;14.302;2023-01-24T05:07:40;101446.59;;;2.66;69.57
76594;BME280;65482;50.240;14.302;2023-01-24T05:10:40;101444.72;;;2.70;69.97
76594;BME280;65482;50.240;14.302;2023-01-24T05:13:33;101442.97;;;2.70;70.31
76594;BME280;65482;50.240;14.302;2023-01-24T05:16:05;101442.13;;;2.70;69.56
76594;BME280;65482;50.240;14.302;2023-01-24T05:18:45;101442.13;;;2.70;70.00
76594;BME280;65482;50.240;14.302;2023-01-24T05:21:21;101447.59;;;2.64;69.71
76594;BME280;65482;50.240;14.302;2023-01-24T05:24:11;101453.00;;;2.59;69.56
76594;BME280;65482;50.240;14.302;2023-01-24T05:27:04;101446.13;;;2.56;70.21
76594;BME280;65482;50.240;14.302;2023-01-24T05:29:51;101446.13;;;2.56;70.08
76594;BME280;65482;50.240;14.302;2023-01-24T05:32:49;101452.38;;;2.52;69.59
76594;BME280;65482;50.240;14.302;2023-01-24T05:35:43;101460.38;;;2.48;69.46
76594;BME280;65482;50.240;14.302;2023-01-24T05:38:34;101452.44;;;2.51;69.38
76594;BME280;65482;50.240;14.302;2023-01-24T05:41:12;101447.41;;;2.46;69.96
76594;BME280;65482;50.240;14.302;2023-01-24T05:43:49;101458.59;;;2.48;70.01
76594;BME280;65482;50.240;14.302;2023-01-24T05:46:29;101453.16;;;2.54;70.06
76594;BME280;65482;50.240;14.302;2023-01-24T05:49:10;101468.88;;;2.53;69.76
76594;BME280;65482;50.240;14.302;2023-01-24T05:52:08;101460.19;;;2.52;69.81
76594;BME280;65482;50.240;14.302;2023-01-24T05:54:49;101468.78;;;2.54;69.86
76594;BME280;65482;50.240;14.302;2023-01-24T05:57:25;101476.50;;;2.57;69.64
76594;BME280;65482;50.240;14.302;2023-01-24T05:59:56;101474.72;;;2.58;69.93
76594;BME280;65482;50.240;14.302;2023-01-24T06:02:30;101472.91;;;2.60;70.19
76594;BME280;65482;50.240;14.302;2023-01-24T06:05:07;101471.97;;;2.63;70.59
76594;BME280;65482;50.240;14.302;2023-01-24T06:07:41;101477.81;;;2.68;70.09
76594;BME280;65482;50.240;14.302;2023-01-24T06:10:07;101471.75;;;2.67;70.37
76594;BME280;65482;50.240;14.302;2023-01-24T06:12:33;101483.88;;;2.68;70.04
76594;BME280;65482;50.240;14.302;2023-01-24T06:14:59;101477.88;;;2.66;69.68
76594;BME280;65482;50.240;14.302;2023-01-24T06:17:45;101489.81;;;2.72;69.45
76594;BME280;65482;50.240;14.302;2023-01-24T06:20:14;101484.78;;;2.67;69.51
76594;BME280;65482;50.240;14.302;2023-01-24T06:22:54;101485.44;;;2.72;69.34
76594;BME280;65482;50.240;14.302;2023-01-24T06:25:48;101484.59;;;2.72;69.41
76594;BME280;65482;50.240;14.302;2023-01-24T06:28:23;101489.03;;;2.70;70.13
76594;BME280;65482;50.240;14.302;2023-01-24T07:28:55;101528.53;;;2.59;70.05
76594;BME280;65482;50.240;14.302;2023-01-24T07:47:43;101546.16;;;2.74;69.37
76594;BME280;65482;50.240;14.302;2023-01-24T07:51:32;101547.72;;;2.78;69.49
76594;BME280;65482;50.240;14.302;2023-01-24T07:54:51;101541.44;;;2.84;69.09
76594;BME280;65482;50.240;14.302;2023-01-24T07:58:00;101542.13;;;2.89;68.97
76594;BME280;65482;50.240;14.302;2023-01-24T08:00:33;101549.09;;;2.89;69.03
76594;BME280;65482;50.240;14.302;2023-01-24T08:03:01;101552.34;;;2.94;69.08
76594;BME280;65482;50.240;14.302;2023-01-24T08:05:30;101548.59;;;3.01;68.82
76594;BME280;65482;50.240;14.302;2023-01-24T08:07:56;101547.56;;;3.05;69.14
76594;BME280;65482;50.240;14.302;2023-01-24T08:10:22;101550.91;;;3.09;68.94
76594;BME280;65482;50.240;14.302;2023-01-24T08:12:53;101541.19;;;3.12;68.68
76594;BME280;65482;50.240;14.302;2023-01-24T08:15:19;101542.69;;;3.18;68.81
76594;BME280;65482;50.240;14.302;2023-01-24T08:17:51;101551.19;;;3.23;68.67
76594;BME280;65482;50.240;14.302;2023-01-24T08:20:25;101551.19;;;3.23;68.51
76594;BME280;65482;50.240;14.302;2023-01-24T08:23:08;101554.69;;;3.22;68.34
76594;BME280;65482;50.240;14.302;2023-01-24T08:25:39;101559.19;;;3.18;68.11
76594;BME280;65482;50.240;14.302;2023-01-24T08:28:18;101553.88;;;3.20;68.18
76594;BME280;65482;50.240;14.302;2023-01-24T08:31:24;101559.78;;;3.25;68.15
76594;BME280;65482;50.240;14.302;2023-01-24T08:33:57;101554.31;;;3.31;68.15
76594;BME280;65482;50.240;14.302;2023-01-24T08:36:27;101560.44;;;3.30;67.47
76594;BME280;65482;50.240;14.302;2023-01-24T08:38:55;101560.25;;;3.35;67.68
76594;BME280;65482;50.240;14.302;2023-01-24T08:41:34;101564.44;;;3.39;68.03
76594;BME280;65482;50.240;14.302;2023-01-24T08:44:04;101569.66;;;3.39;67.99
76594;BME280;65482;50.240;14.302;2023-01-24T08:46:33;101566.19;;;3.38;68.16
76594;BME280;65482;50.240;14.302;2023-01-24T08:49:03;101567.03;;;3.39;67.79
76594;BME280;65482;50.240;14.302;2023-01-24T08:51:39;101569.44;;;3.44;68.09
76594;BME280;65482;50.240;14.302;2023-01-24T08:54:37;101561.34;;;3.50;67.89
76594;BME280;65482;50.240;14.302;2023-01-24T09:04:08;101562.88;;;3.55;67.05
76594;BME280;65482;50.240;14.302;2023-01-24T09:06:35;101576.69;;;3.57;67.56
76594;BME280;65482;50.240;14.302;2023-01-24T09:09:33;101574.28;;;3.53;67.45
76594;BME280;65482;50.240;14.302;2023-01-24T09:11:59;101568.22;;;3.52;67.35
76594;BME280;65482;50.240;14.302;2023-01-24T09:15:13;101578.72;;;3.51;66.83
76594;BME280;65482;50.240;14.302;2023-01-24T09:17:54;101586.50;;;3.52;67.65
76594;BME280;65482;50.240;14.302;2023-01-24T09:20:25;101581.19;;;3.54;67.46
76594;BME280;65482;50.240;14.302;2023-01-24T09:22:55;101578.41;;;3.58;67.55
76594;BME280;65482;50.240;14.302;2023-01-24T09:25:25;101588.69;;;3.62;67.39
76594;BME280;65482;50.240;14.302;2023-01-24T09:28:00;101588.69;;;3.62;67.78
76594;BME280;65482;50.240;14.302;2023-01-24T09:33:51;101598.88;;;3.68;66.72
76594;BME280;65482;50.240;14.302;2023-01-24T09:43:58;101599.78;;;3.46;67.66
76594;BME280;65482;50.240;14.302;2023-01-24T09:53:23;101603.88;;;3.52;67.20
76594;BME280;65482;50.240;14.302;2023-01-24T10:50:44;101561.03;;;3.57;68.15
76594;BME280;65482;50.240;14.302;2023-01-24T10:53:26;101554.03;;;3.58;67.94
76594;BME280;65482;50.240;14.302;2023-01-24T10:56:02;101554.59;;;3.66;67.67
76594;BME280;65482;50.240;14.302;2023-01-24T10:58:59;101560.66;;;3.67;67.46
76594;BME280;65482;50.240;14.302;2023-01-24T11:02:23;101562.66;;;3.60;67.71
76594;BME280;65482;50.240;14.302;2023-01-24T13:12:47;101521.88;;;3.57;68.42
76594;BME280;65482;50.240;14.302;2023-01-24T14:15:44;101506.75;;;3.45;68.16
76594;BME280;65482;50.240;14.302;2023-01-24T14:51:39;101541.47;;;3.47;67.57
76594;BME280;65482;50.240;14.302;2023-01-24T14:54:58;101547.53;;;3.48;67.97
76594;BME280;65482;50.240;14.302;2023-01-24T14:58:22;101547.47;;;3.49;68.07
76594;BME280;65482;50.240;14.302;2023-01-24T15:00:55;101551.00;;;3.48;67.73
76594;BME280;65482;50.240;14.302;2023-01-24T15:07:51;101553.47;;;3.51;67.52
76594;BME280;65482;50.240;14.302;2023-01-24T15:11:07;101552.84;;;3.46;67.86
76594;BME280;65482;50.240;14.302;2023-01-24T15:13:55;101554.50;;;3.47;67.88
76594;BME280;65482;50.240;14.302;2023-01-24T15:19:43;101551.59;;;3.55;67.87
76594;BME280;65482;50.240;14.302;2023-01-24T15:22:18;101548.13;;;3.54;67.37
76594;BME280;65482;50.240;14.302;2023-01-24T15:24:53;101553.25;;;3.56;67.52
76594;BME280;65482;50.240;14.302;2023-01-24T15:27:35;101555.75;;;3.59;67.48
76594;BME280;65482;50.240;14.302;2023-01-24T15:34:00;101562.81;;;3.57;67.33
76594;BME280;65482;50.240;14.302;2023-01-24T15:36:44;101558.63;;;3.53;67.37
76594;BME280;65482;50.240;14.302;2023-01-24T15:39:24;101565.00;;;3.46;67.17
76594;BME280;65482;50.240;14.302;2023-01-24T15:41:59;101571.22;;;3.43;67.78
76594;BME280;65482;50.240;14.302;2023-01-24T15:44:56;101574.81;;;3.41;67.76
76594;BME280;65482;50.240;14.302;2023-01-24T15:48:26;101579.16;;;3.40;67.96
76594;BME280;65482;50.240;14.302;2023-01-24T15:51:57;101578.25;;;3.41;67.65
76594;BME280;65482;50.240;14.302;2023-01-24T15:54:37;101576.22;;;3.27;68.15
76594;BME280;65482;50.240;14.302;2023-01-24T15:57:47;101574.28;;;3.32;67.94
76594;BME280;65482;50.240;14.302;2023-01-24T16:00:26;101576.94;;;3.31;68.26
76594;BME280;65482;50.240;14.302;2023-01-24T16:06:20;101583.94;;;3.30;68.26
76594;BME280;65482;50.240;14.302;2023-01-24T16:08:51;101588.94;;;3.35;68.38
76594;BME280;65482;50.240;14.302;2023-01-24T16:11:26;101581.13;;;3.35;68.20
76594;BME280;65482;50.240;14.302;2023-01-24T16:14:05;101583.94;;;3.30;67.86
76594;BME280;65482;50.240;14.302;2023-01-24T16:16:43;101570.88;;;3.30;67.84
76594;BME280;65482;50.240;14.302;2023-01-24T16:19:33;101575.69;;;3.19;68.24
76594;BME280;65482;50.240;14.302;2023-01-24T16:22:34;101566.81;;;3.23;68.58
76594;BME280;65482;50.240;14.302;2023-01-24T16:25:17;101566.69;;;3.26;68.17
76594;BME280;65482;50.240;14.302;2023-01-24T16:27:51;101559.19;;;3.18;68.48
76594;BME280;65482;50.240;14.302;2023-01-24T16:30:51;101571.25;;;3.21;68.77
76594;BME280;65482;50.240;14.302;2023-01-24T16:33:32;101563.38;;;3.23;68.53
76594;BME280;65482;50.240;14.302;2023-01-24T16:36:14;101562.84;;;3.14;68.49
76594;BME280;65482;50.240;14.302;2023-01-24T16:38:51;101558.31;;;3.18;68.41
76594;BME280;65482;50.240;14.302;2023-01-24T16:41:36;101558.28;;;3.19;68.17
76594;BME280;65482;50.240;14.302;2023-01-24T16:44:09;101560.56;;;3.27;67.94
76594;BME280;65482;50.240;14.302;2023-01-24T16:46:39;101564.75;;;3.31;68.13
76594;BME280;65482;50.240;14.302;2023-01-24T16:49:14;101557.75;;;3.32;68.32
76594;BME280;65482;50.240;14.302;2023-01-24T16:51:45;101563.69;;;3.35;68.17
76594;BME280;65482;50.240;14.302;2023-01-24T16:54:17;101567.25;;;3.34;68.59
76594;BME280;65482;50.240;14.302;2023-01-24T16:56:49;101557.59;;;3.36;68.44
76594;BME280;65482;50.240;14.302;2023-01-24T16:59:29;101563.38;;;3.43;68.29
76594;BME280;65482;50.240;14.302;2023-01-24T17:02:18;101564.94;;;3.47;68.13
76594;BME280;65482;50.240;14.302;2023-01-24T17:04:56;101558.06;;;3.46;67.57
76594;BME280;65482;50.240;14.302;2023-01-24T17:07:39;101575.50;;;3.44;67.60
76594;BME280;65482;50.240;14.302;2023-01-24T17:10:19;101564.16;;;3.45;67.65
76594;BME280;65482;50.240;14.302;2023-01-24T17:13:00;101567.56;;;3.47;67.62
76594;BME280;65482;50.240;14.302;2023-01-24T17:15:49;101583.47;;;3.41;67.72
76594;BME280;65482;50.240;14.302;2023-01-24T17:18:27;101572.25;;;3.39;67.42
76594;BME280;65482;50.240;14.302;2023-01-24T17:21:41;101579.09;;;3.42;67.64
76594;BME280;65482;50.240;14.302;2023-01-24T17:24:17;101578.47;;;3.36;67.71
76594;BME280;65482;50.240;14.302;2023-01-24T17:26:50;101577.72;;;3.33;67.88
76594;BME280;65482;50.240;14.302;2023-01-24T17:29:42;101580.34;;;3.33;68.12
76594;BME280;65482;50.240;14.302;2023-01-24T17:32:46;101573.28;;;3.35;68.05
76594;BME280;65482;50.240;14.302;2023-01-24T17:38:25;101572.47;;;3.34;67.83
76594;BME280;65482;50.240;14.302;2023-01-24T17:41:22;101571.41;;;3.38;67.73
76594;BME280;65482;50.240;14.302;2023-01-24T17:43:59;101575.75;;;3.38;67.88
76594;BME280;65482;50.240;14.302;2023-01-24T17:46:25;101575.22;;;3.30;68.05
76594;BME280;65482;50.240;14.302;2023-01-24T17:48:57;101577.97;;;3.27;67.60
76594;BME280;65482;50.240;14.302;2023-01-24T17:52:06;101579.81;;;3.25;67.78
76594;BME280;65482;50.240;14.302;2023-01-24T17:54:47;101571.97;;;3.25;68.14
76594;BME280;65482;50.240;14.302;2023-01-24T17:57:29;101582.31;;;3.26;68.10
76594;BME280;65482;50.240;14.302;2023-01-24T18:00:30;101577.00;;;3.29;68.37
76594;BME280;65482;50.240;14.302;2023-01-24T18:03:09;101576.94;;;3.31;67.93
76594;BME280;65482;50.240;14.302;2023-01-24T18:05:47;101575.31;;;3.28;68.34
76594;BME280;65482;50.240;14.302;2023-01-24T18:08:21;101577.94;;;3.28;67.92
76594;BME280;65482;50.240;14.302;2023-01-24T18:14:25;101576.22;;;3.27;68.29
76594;BME280;65482;50.240;14.302;2023-01-24T18:17:20;101577.06;;;3.28;67.99
76594;BME280;65482;50.240;14.302;2023-01-24T18:19:51;101573.59;;;3.27;68.22
76594;BME280;65482;50.240;14.302;2023-01-24T18:22:26;101573.66;;;3.26;68.49
76594;BME280;65482;50.240;14.302;2023-01-24T18:25:04;101582.16;;;3.31;67.97
76594;BME280;65482;50.240;14.302;2023-01-24T18:27:35;101572.81;;;3.25;68.33
76594;BME280;65482;50.240;14.302;2023-01-24T18:30:18;101560.69;;;3.24;68.32
76594;BME280;65482;50.240;14.302;2023-01-24T18:32:49;101561.47;;;3.26;68.52
76594;BME280;65482;50.240;14.302;2023-01-24T18:35:44;101562.28;;;3.28;68.08
76594;BME280;65482;50.240;14.302;2023-01-24T18:38:12;101555.25;;;3.30;68.06
76594;BME280;65482;50.240;14.302;2023-01-24T18:40:54;101560.38;;;3.32;67.82
76594;BME280;65482;50.240;14.302;2023-01-24T18:43:35;101572.72;;;3.28;67.92
76594;BME280;65482;50.240;14.302;2023-01-24T18:46:21;101573.56;;;3.29;68.29
76594;BME280;65482;50.240;14.302;2023-01-24T18:49:04;101568.28;;;3.30;68.31
76594;BME280;65482;50.240;14.302;2023-01-24T18:51:56;101564.69;;;3.33;68.27
76594;BME280;65482;50.240;14.302;2023-01-24T18:54:38;101571.91;;;3.26;68.61
76594;BME280;65482;50.240;14.302;2023-01-24T18:57:33;101574.50;;;3.26;68.63
76594;BME280;65482;50.240;14.302;2023-01-24T19:00:06;101571.97;;;3.25;68.62
76594;BME280;65482;50.240;14.302;2023-01-24T19:02:55;101569.28;;;3.26;68.77
76594;BME280;65482;50.240;14.302;2023-01-24T19:05:33;101564.16;;;3.25;68.55
76594;BME280;65482;50.240;14.302;2023-01-24T19:08:18;101566.22;;;3.16;68.68
76594;BME280;65482;50.240;14.302;2023-01-24T19:11:30;101563.53;;;3.18;68.76
76594;BME280;65482;50.240;14.302;2023-01-24T19:14:42;101562.59;;;3.21;69.00
76594;BME280;65482;50.240;14.302;2023-01-24T19:17:18;101559.78;;;3.25;68.31
76594;BME280;65482;50.240;14.302;2023-01-24T19:20:02;101564.00;;;3.28;68.65
76594;BME280;65482;50.240;14.302;2023-01-24T19:23:03;101572.75;;;3.27;68.53
76594;BME280;65482;50.240;14.302;2023-01-24T19:25:39;101562.19;;;3.30;68.31
76594;BME280;65482;50.240;14.302;2023-01-24T19:28:15;101555.28;;;3.29;68.21
76594;BME280;65482;50.240;14.302;2023-01-24T19:30:44;101564.06;;;3.26;68.38
76594;BME280;65482;50.240;14.302;2023-01-24T19:33:46;101570.22;;;3.25;68.10
76594;BME280;65482;50.240;14.302;2023-01-24T19:36:18;101568.44;;;3.26;68.31
76594;BME280;65482;50.240;14.302;2023-01-24T19:38:56;101568.34;;;3.29;68.34
76594;BME280;65482;50.240;14.302;2023-01-24T19:41:38;101570.88;;;3.30;68.32
76594;BME280;65482;50.240;14.302;2023-01-24T19:44:25;101570.94;;;3.29;68.11
76594;BME280;65482;50.240;14.302;2023-01-24T19:47:27;101569.13;;;3.31;68.92
76594;BME280;65482;50.240;14.302;2023-01-24T19:50:38;101562.44;;;3.24;68.53
76594;BME280;65482;50.240;14.302;2023-01-24T19:53:20;101567.84;;;3.19;68.32
76594;BME280;65482;50.240;14.302;2023-01-24T19:56:17;101569.00;;;3.12;68.47
76594;BME280;65482;50.240;14.302;2023-01-24T19:59:04;101576.72;;;3.15;68.44
76594;BME280;65482;50.240;14.302;2023-01-24T20:02:03;101575.78;;;3.16;68.74
76594;BME280;65482;50.240;14.302;2023-01-24T20:04:35;101571.50;;;3.15;69.01
76594;BME280;65482;50.240;14.302;2023-01-24T20:07:01;101569.63;;;3.18;69.08
76594;BME280;65482;50.240;14.302;2023-01-24T20:09:43;101574.69;;;3.22;68.98
76594;BME280;65482;50.240;14.302;2023-01-24T20:12:29;101576.53;;;3.19;69.03
76594;BME280;65482;50.240;14.302;2023-01-24T20:15:26;101575.75;;;3.17;69.03
76594;BME280;65482;50.240;14.302;2023-01-24T20:18:00;101580.16;;;3.15;69.08
76594;BME280;65482;50.240;14.302;2023-01-24T20:20:57;101576.88;;;3.10;69.16
76594;BME280;65482;50.240;14.302;2023-01-24T20:26:32;101574.06;;;3.16;68.97
76594;BME280;65482;50.240;14.302;2023-01-24T20:29:07;101574.94;;;3.15;68.86
76594;BME280;65482;50.240;14.302;2023-01-24T20:31:53;101580.94;;;3.17;69.39
76594;BME280;65482;50.240;14.302;2023-01-24T20:34:33;101571.31;;;3.19;68.87
76594;BME280;65482;50.240;14.302;2023-01-24T20:37:14;101568.66;;;3.21;69.30
76594;BME280;65482;50.240;14.302;2023-01-24T20:40:03;101574.69;;;3.22;69.47
76594;BME280;65482;50.240;14.302;2023-01-24T20:42:33;101573.72;;;3.24;69.11
76594;BME280;65482;50.240;14.302;2023-01-24T20:45:05;101572.81;;;3.25;69.35
76594;BME280;65482;50.240;14.302;2023-01-24T20:47:48;101569.38;;;3.25;69.10
76594;BME280;65482;50.240;14.302;2023-01-24T20:50:35;101568.44;;;3.26;69.38
76594;BME280;65482;50.240;14.302;2023-01-24T20:53:09;101565.84;;;3.26;69.35
76594;BME280;65482;50.240;14.302;2023-01-24T20:56:05;101573.72;;;3.24;69.38
76594;BME280;65482;50.240;14.302;2023-01-24T20:58:38;101572.81;;;3.25;68.75
76594;BME280;65482;50.240;14.302;2023-01-24T21:01:23;101573.84;;;3.21;68.87
76594;BME280;65482;50.240;14.302;2023-01-24T21:04:00;101569.69;;;3.17;69.53
76594;BME280;65482;50.240;14.302;2023-01-24T21:06:28;101570.53;;;3.17;69.20
76594;BME280;65482;50.240;14.302;2023-01-24T21:08:55;101566.94;;;3.20;69.54
76594;BME280;65482;50.240;14.302;2023-01-24T21:11:25;101572.88;;;3.24;69.67
76594;BME280;65482;50.240;14.302;2023-01-24T21:13:56;101576.31;;;3.24;69.25
76594;BME280;65482;50.240;14.302;2023-01-24T21:16:24;101572.81;;;3.25;69.10